createdAt,value
2023-02-28T00:00:52.543Z,1.67
2023-02-28T00:04:00.883Z,2.20
2023-02-28T00:07:09.220Z,1.63
2023-02-28T00:10:23.975Z,1.63
2023-02-28T00:13:32.397Z,1.53
2023-02-28T00:16:40.716Z,1.50
2023-02-28T00:19:49.957Z,1.67
2023-02-28T00:22:58.518Z,1.33
2023-02-28T00:26:08.757Z,1.40
2023-02-28T00:29:19.150Z,1.53
2023-02-28T00:32:27.687Z,1.20
2023-02-28T00:35:36.660Z,1.73
2023-02-28T00:38:44.997Z,2.30
2023-02-28T00:41:54.445Z,2.30
2023-02-28T00:45:04.603Z,2.07
2023-02-28T00:48:12.756Z,2.13
2023-02-28T00:51:21.044Z,2.10
2023-02-28T00:54:29.748Z,1.73
2023-02-28T00:57:39.412Z,2.17
2023-02-28T01:00:49.757Z,1.73
2023-02-28T01:03:58.558Z,2.20
2023-02-28T01:07:06.705Z,1.97
2023-02-28T01:10:15.971Z,1.57
2023-02-28T01:13:26.410Z,1.83
2023-02-28T01:16:35.051Z,1.60
2023-02-28T01:19:45.044Z,2.20
2023-02-28T01:22:53.383Z,1.90
2023-02-28T01:26:07.320Z,1.90
2023-02-28T01:29:17.655Z,1.77
2023-02-28T01:32:26.021Z,1.53
2023-02-28T01:35:35.652Z,1.90
2023-02-28T01:38:44.470Z,2.30
2023-02-28T01:41:52.704Z,2.10
2023-02-28T01:45:18.838Z,2.20
2023-02-28T01:48:35.219Z,1.87
2023-02-28T01:51:51.576Z,1.50
2023-02-28T01:55:04.889Z,1.70
2023-02-28T01:58:14.205Z,2.37
2023-02-28T02:01:26.379Z,2.57
2023-02-28T02:04:46.541Z,1.87
2023-02-28T02:08:00.167Z,2.10
2023-02-28T02:11:14.011Z,2.17
2023-02-28T02:14:42.765Z,2.20
2023-02-28T02:17:59.797Z,1.87
2023-02-28T02:22:14.100Z,2.33
2023-02-28T02:25:35.200Z,1.87
2023-02-28T02:29:18.271Z,1.97
2023-02-28T02:33:07.930Z,2.23
2023-02-28T02:36:27.012Z,2.23
2023-02-28T02:39:49.233Z,2.20
2023-02-28T02:43:05.216Z,2.10
2023-02-28T02:46:21.798Z,2.23
2023-02-28T02:49:35.143Z,2.40
2023-02-28T02:52:52.431Z,1.87
2023-02-28T02:56:03.198Z,2.87
2023-02-28T02:59:22.369Z,2.13
2023-02-28T03:02:35.213Z,2.40
2023-02-28T03:05:48.967Z,2.63
2023-02-28T03:08:59.375Z,2.77
2023-02-28T03:12:14.007Z,2.73
2023-02-28T03:15:29.183Z,2.00
2023-02-28T03:18:55.304Z,2.93
2023-02-28T03:22:37.581Z,2.40
2023-02-28T03:25:58.737Z,2.13
2023-02-28T03:29:18.348Z,2.47
2023-02-28T03:32:35.953Z,2.43
2023-02-28T03:35:50.422Z,2.47
2023-02-28T03:39:04.146Z,2.77
2023-02-28T03:42:21.256Z,2.50
2023-02-28T03:45:33.179Z,2.43
2023-02-28T03:48:46.159Z,2.50
2023-02-28T03:51:57.606Z,2.57
2023-02-28T03:55:13.032Z,2.40
2023-02-28T03:58:31.575Z,2.40
2023-02-28T04:01:44.861Z,2.20
2023-02-28T04:04:53.350Z,2.30
2023-02-28T04:08:06.917Z,2.97
2023-02-28T04:11:24.704Z,1.70
2023-02-28T04:14:34.353Z,3.20
2023-02-28T04:17:42.644Z,2.80
2023-02-28T04:20:51.100Z,2.20
2023-02-28T04:24:01.609Z,3.10
2023-02-28T04:27:11.549Z,3.20
2023-02-28T04:30:21.396Z,3.27
2023-02-28T04:33:29.849Z,3.73
2023-02-28T04:36:38.131Z,3.37
2023-02-28T04:39:46.493Z,3.30
2023-02-28T04:42:55.140Z,3.00
2023-02-28T04:46:07.731Z,3.10
2023-02-28T04:49:16.218Z,2.77
2023-02-28T04:52:24.683Z,1.97
2023-02-28T04:55:32.964Z,2.70
2023-02-28T04:58:41.712Z,2.43
2023-02-28T05:01:51.960Z,2.13
2023-02-28T05:05:00.259Z,2.57
2023-02-28T05:08:08.638Z,2.90
2023-02-28T05:11:20.616Z,2.63
2023-02-28T05:14:28.803Z,2.63
2023-02-28T05:17:38.398Z,2.53
2023-02-28T05:20:46.771Z,2.97
2023-02-28T05:23:57.154Z,3.10
2023-02-28T05:27:05.489Z,2.50
2023-02-28T05:30:14.413Z,3.50
2023-02-28T05:33:23.866Z,4.80
2023-02-28T05:36:36.234Z,5.10
2023-02-28T05:39:44.999Z,5.37
2023-02-28T05:42:53.177Z,3.87
2023-02-28T05:46:03.785Z,3.60
2023-02-28T05:49:13.412Z,4.00
2023-02-28T05:52:21.754Z,3.80
2023-02-28T05:55:30.159Z,5.03
2023-02-28T05:58:38.311Z,4.37
2023-02-28T06:01:49.292Z,4.30
2023-02-28T06:04:59.050Z,4.53
2023-02-28T06:08:08.185Z,4.83
2023-02-28T06:11:16.654Z,5.67
2023-02-28T06:14:24.812Z,4.60
2023-02-28T06:17:32.939Z,5.33
2023-02-28T06:20:43.694Z,5.20
2023-02-28T06:23:52.307Z,6.13
2023-02-28T06:27:05.813Z,6.20
2023-02-28T06:30:15.152Z,6.50
2023-02-28T06:33:23.361Z,6.97
2023-02-28T06:36:33.016Z,7.33
2023-02-28T06:39:41.992Z,7.37
2023-02-28T06:42:50.174Z,8.20
2023-02-28T06:45:58.911Z,8.47
2023-02-28T06:49:09.825Z,7.97
2023-02-28T06:52:19.780Z,8.73
2023-02-28T06:55:29.331Z,9.70
2023-02-28T06:58:40.146Z,10.13
2023-02-28T07:01:48.347Z,9.60
2023-02-28T07:04:56.775Z,10.87
2023-02-28T07:08:07.978Z,9.67
2023-02-28T07:11:16.516Z,10.20
2023-02-28T07:14:24.632Z,9.97
2023-02-28T07:17:33.099Z,9.70
2023-02-28T07:20:41.219Z,8.17
2023-02-28T07:23:51.379Z,8.20
2023-02-28T07:27:00.296Z,8.97
2023-02-28T07:30:10.624Z,8.53
2023-02-28T07:33:20.100Z,8.63
2023-02-28T07:36:28.332Z,8.87
2023-02-28T07:39:38.306Z,8.53
2023-02-28T07:42:47.053Z,8.97
2023-02-28T07:46:03.876Z,8.50
2023-02-28T07:49:12.758Z,8.77
2023-02-28T07:52:21.428Z,7.57
2023-02-28T07:55:30.864Z,8.57
2023-02-28T07:58:39.220Z,8.47
2023-02-28T08:01:47.609Z,8.60
2023-02-28T08:04:55.897Z,9.23
2023-02-28T08:08:04.342Z,8.07
2023-02-28T08:11:15.244Z,8.70
2023-02-28T08:14:24.768Z,8.03
2023-02-28T08:17:35.335Z,8.23
2023-02-28T08:20:43.743Z,7.97
2023-02-28T08:23:53.213Z,8.00
2023-02-28T08:27:02.711Z,9.10
2023-02-28T08:30:14.544Z,7.90
2023-02-28T08:33:23.860Z,8.37
2023-02-28T08:36:32.178Z,8.57
2023-02-28T08:39:40.740Z,8.30
2023-02-28T08:42:50.781Z,7.90
2023-02-28T08:45:59.408Z,9.67
2023-02-28T08:49:08.562Z,7.73
2023-02-28T08:52:17.137Z,7.83
2023-02-28T08:55:25.791Z,7.63
2023-02-28T08:58:36.810Z,7.97
2023-02-28T09:01:45.803Z,8.13
2023-02-28T09:04:54.377Z,7.97
2023-02-28T09:08:02.916Z,8.47
2023-02-28T09:11:12.367Z,8.87
2023-02-28T09:14:22.139Z,7.97
2023-02-28T09:17:31.236Z,8.77
2023-02-28T09:20:40.999Z,8.07
2023-02-28T09:23:52.528Z,7.90
2023-02-28T09:27:05.403Z,8.57
2023-02-28T09:30:16.390Z,8.17
2023-02-28T09:33:25.430Z,8.07
2023-02-28T09:36:44.644Z,7.80
2023-02-28T09:39:54.162Z,7.83
2023-02-28T09:43:02.851Z,8.53
2023-02-28T09:46:27.334Z,8.13
2023-02-28T09:49:43.357Z,8.13
2023-02-28T09:52:52.888Z,8.93
2023-02-28T09:56:06.963Z,8.20
2023-02-28T09:59:32.683Z,8.33
2023-02-28T10:03:21.617Z,8.73
2023-02-28T10:06:38.474Z,8.53
2023-02-28T10:09:51.631Z,8.47
2023-02-28T10:13:04.553Z,8.27
2023-02-28T10:16:18.562Z,8.77
2023-02-28T10:19:36.992Z,8.07
2023-02-28T10:22:58.991Z,7.90
2023-02-28T10:26:17.113Z,7.93
2023-02-28T10:29:25.607Z,8.77
2023-02-28T10:32:37.957Z,8.30
2023-02-28T10:35:47.837Z,8.83
2023-02-28T10:38:57.017Z,8.80
2023-02-28T10:42:05.557Z,8.17
2023-02-28T10:45:17.825Z,8.30
2023-02-28T10:48:35.532Z,9.13
2023-02-28T10:51:45.065Z,8.17
2023-02-28T10:55:21.622Z,8.47
2023-02-28T10:58:33.084Z,9.57
2023-02-28T11:01:49.018Z,9.27
2023-02-28T11:04:58.131Z,7.87
2023-02-28T11:08:16.491Z,9.77
2023-02-28T11:11:29.174Z,8.40
2023-02-28T11:14:50.061Z,8.30
2023-02-28T11:18:02.985Z,9.83
2023-02-28T11:21:19.846Z,8.87
2023-02-28T11:24:35.467Z,8.60
2023-02-28T11:27:52.219Z,8.83
2023-02-28T11:31:07.697Z,9.77
2023-02-28T11:34:29.019Z,9.67
2023-02-28T11:37:38.518Z,8.77
2023-02-28T11:41:00.831Z,9.10
2023-02-28T11:44:37.734Z,9.93
2023-02-28T11:47:58.520Z,8.40
2023-02-28T11:51:23.271Z,9.37
2023-02-28T11:55:16.105Z,9.80
2023-02-28T11:58:48.360Z,9.47
2023-02-28T12:02:38.495Z,10.17
2023-02-28T12:05:55.877Z,9.20
2023-02-28T12:09:22.607Z,10.57
2023-02-28T12:12:47.495Z,8.57
2023-02-28T12:16:32.769Z,9.37
2023-02-28T12:19:56.230Z,9.57
2023-02-28T12:23:49.914Z,9.43
2023-02-28T12:27:04.718Z,9.93
2023-02-28T12:37:41.292Z,9.33
2023-02-28T12:40:56.802Z,9.13
2023-02-28T12:44:13.957Z,9.53
2023-02-28T12:47:22.131Z,9.03
2023-02-28T12:50:32.807Z,9.17
2023-02-28T12:54:00.820Z,10.03
2023-02-28T12:57:18.284Z,9.13
2023-02-28T13:00:37.222Z,9.33
2023-02-28T13:04:23.312Z,8.87
2023-02-28T13:08:23.312Z,9.50
2023-02-28T13:11:36.188Z,9.47
2023-02-28T13:14:45.417Z,9.67
2023-02-28T13:17:56.799Z,8.90
2023-02-28T13:21:08.162Z,9.20
2023-02-28T13:24:46.020Z,9.37
2023-02-28T13:28:01.837Z,9.80
2023-02-28T13:31:10.401Z,9.40
2023-02-28T13:34:18.986Z,9.13
2023-02-28T13:37:43.526Z,8.60
2023-02-28T13:40:51.866Z,9.27
2023-02-28T13:44:07.613Z,8.57
2023-02-28T13:47:38.564Z,9.10
2023-02-28T13:50:47.665Z,8.67
2023-02-28T13:54:09.698Z,8.47
2023-02-28T13:57:37.941Z,9.00
2023-02-28T14:01:14.265Z,9.97
2023-02-28T14:05:02.336Z,9.83
2023-02-28T14:08:18.842Z,10.03
2023-02-28T14:11:33.958Z,9.40
2023-02-28T14:14:59.043Z,9.67
2023-02-28T14:18:29.672Z,9.47
2023-02-28T14:21:42.795Z,9.90
2023-02-28T14:25:18.843Z,9.93
2023-02-28T14:28:51.985Z,9.47
2023-02-28T14:32:08.001Z,9.70
2023-02-28T14:35:38.280Z,9.40
2023-02-28T14:38:54.199Z,10.03
2023-02-28T14:42:05.759Z,10.23
2023-02-28T14:45:21.478Z,8.70
2023-02-28T14:48:30.685Z,9.97
2023-02-28T14:51:40.537Z,9.97
2023-02-28T14:54:54.675Z,9.60
2023-02-28T14:58:07.720Z,9.90
2023-02-28T15:01:23.170Z,11.03
2023-02-28T15:04:32.952Z,9.87
2023-02-28T15:07:42.783Z,9.83
2023-02-28T15:10:57.608Z,10.50
2023-02-28T15:14:06.961Z,9.47
2023-02-28T15:17:25.156Z,10.83
2023-02-28T15:20:35.487Z,10.20
2023-02-28T15:23:52.770Z,9.93
2023-02-28T15:27:06.283Z,9.33
2023-02-28T15:30:20.520Z,9.47
2023-02-28T15:33:31.201Z,10.43
2023-02-28T15:36:39.345Z,10.40
2023-02-28T15:39:49.898Z,9.87
2023-02-28T15:43:07.506Z,10.23
2023-02-28T15:46:18.035Z,10.33
2023-02-28T15:49:27.051Z,10.27
2023-02-28T15:52:42.531Z,11.10
2023-02-28T15:56:02.968Z,9.47
2023-02-28T15:59:20.639Z,10.33
2023-02-28T16:02:34.921Z,10.77
2023-02-28T16:05:43.927Z,11.17
2023-02-28T16:08:52.529Z,10.50
2023-02-28T16:12:05.122Z,10.27
2023-02-28T16:15:22.627Z,10.47
2023-02-28T16:18:30.884Z,11.53
2023-02-28T16:21:39.073Z,10.93
2023-02-28T16:24:49.020Z,12.57
2023-02-28T16:28:01.336Z,11.23
2023-02-28T16:31:12.876Z,10.87
2023-02-28T16:34:21.552Z,10.63
2023-02-28T16:37:30.484Z,17.60
2023-02-28T16:40:39.328Z,17.17
2023-02-28T16:43:53.549Z,15.07
2023-02-28T16:47:03.942Z,11.97
2023-02-28T16:50:18.449Z,12.20
2023-02-28T16:53:26.802Z,12.13
2023-02-28T16:56:36.346Z,12.43
2023-02-28T16:59:46.051Z,15.13
2023-02-28T17:02:54.513Z,15.43
2023-02-28T17:06:03.450Z,23.30
2023-02-28T17:09:22.933Z,26.30
2023-02-28T17:12:33.545Z,26.40
2023-02-28T17:15:43.888Z,20.97
2023-02-28T17:18:53.662Z,13.80
2023-02-28T17:22:02.035Z,14.10
2023-02-28T17:25:13.155Z,14.53
2023-02-28T17:28:23.049Z,13.63
2023-02-28T17:31:34.250Z,13.97
2023-02-28T17:34:42.874Z,14.43
2023-02-28T17:37:51.843Z,12.83
2023-02-28T17:41:00.772Z,13.20
2023-02-28T17:44:09.315Z,13.67
2023-02-28T17:47:20.257Z,17.10
2023-02-28T17:50:29.010Z,15.87
2023-02-28T17:53:37.154Z,15.33
2023-02-28T17:56:45.523Z,16.43
2023-02-28T17:59:53.695Z,16.57
2023-02-28T18:03:03.347Z,16.47
2023-02-28T18:06:20.994Z,15.30
2023-02-28T18:09:29.464Z,16.27
2023-02-28T18:12:38.703Z,16.47
2023-02-28T18:15:48.436Z,14.93
2023-02-28T18:18:58.215Z,15.63
2023-02-28T18:22:07.671Z,16.10
2023-02-28T18:25:17.609Z,15.97
2023-02-28T18:28:26.166Z,16.50
2023-02-28T18:31:35.228Z,18.83
2023-02-28T18:34:44.770Z,17.07
2023-02-28T18:37:53.308Z,18.10
2023-02-28T18:41:03.971Z,19.47
2023-02-28T18:44:19.852Z,19.10
2023-02-28T18:47:28.952Z,19.13
2023-02-28T18:50:40.251Z,20.50
2023-02-28T18:53:49.565Z,20.60
2023-02-28T18:56:57.758Z,18.17
2023-02-28T19:00:09.932Z,19.13
2023-02-28T19:03:18.339Z,21.63
2023-02-28T19:06:29.656Z,21.67
2023-02-28T19:09:38.551Z,17.10
2023-02-28T19:12:47.193Z,14.33
2023-02-28T19:16:03.061Z,15.17
2023-02-28T19:19:11.532Z,17.00
2023-02-28T19:22:21.159Z,16.57
2023-02-28T19:25:29.507Z,21.10
2023-02-28T19:28:38.674Z,15.73
2023-02-28T19:31:47.071Z,17.07
2023-02-28T19:34:55.360Z,17.37
2023-02-28T19:38:04.987Z,16.30
2023-02-28T19:41:15.206Z,16.03
2023-02-28T19:44:23.378Z,19.27
2023-02-28T19:47:31.686Z,18.57
2023-02-28T19:50:41.403Z,19.80
2023-02-28T19:53:51.036Z,17.40
2023-02-28T19:56:59.298Z,17.00
2023-02-28T20:00:09.605Z,16.07
2023-02-28T20:03:24.245Z,15.70
2023-02-28T20:06:33.499Z,13.70
2023-02-28T20:09:44.752Z,12.47
2023-02-28T20:12:52.964Z,13.47
2023-02-28T20:16:02.983Z,13.20
2023-02-28T20:19:11.198Z,13.07
2023-02-28T20:22:19.469Z,13.00
2023-02-28T20:25:29.063Z,11.70
2023-02-28T20:28:37.987Z,10.97
2023-02-28T20:31:46.462Z,11.43
2023-02-28T20:34:55.271Z,11.70
2023-02-28T20:38:03.422Z,11.23
2023-02-28T20:41:14.094Z,11.40
2023-02-28T20:44:22.439Z,11.47
2023-02-28T20:47:30.599Z,12.07
2023-02-28T20:50:38.834Z,11.47
2023-02-28T20:53:47.196Z,12.23
2023-02-28T20:56:56.723Z,10.83
2023-02-28T21:00:09.098Z,11.67
2023-02-28T21:03:17.338Z,11.10
2023-02-28T21:06:28.722Z,10.40
2023-02-28T21:09:37.417Z,11.23
2023-02-28T21:12:50.976Z,10.23
2023-02-28T21:16:04.638Z,11.10
2023-02-28T21:19:13.810Z,11.37
2023-02-28T21:22:22.177Z,10.87
2023-02-28T21:25:30.308Z,11.07
2023-02-28T21:28:43.976Z,11.23
2023-02-28T21:31:53.231Z,10.30
2023-02-28T21:35:01.644Z,11.40
2023-02-28T21:38:09.718Z,9.97
2023-02-28T21:41:21.586Z,10.57
2023-02-28T21:44:32.086Z,11.33
2023-02-28T21:47:40.414Z,9.43
2023-02-28T21:50:57.606Z,9.90
2023-02-28T21:54:05.859Z,10.13
2023-02-28T21:57:14.206Z,9.90
2023-02-28T22:00:25.267Z,10.40
2023-02-28T22:03:33.665Z,10.33
2023-02-28T22:06:42.857Z,9.90
2023-02-28T22:09:51.186Z,9.37
2023-02-28T22:13:01.823Z,10.03
2023-02-28T22:16:15.252Z,9.83
2023-02-28T22:19:24.546Z,9.33
2023-02-28T22:22:32.955Z,10.20
2023-02-28T22:25:41.110Z,10.60
2023-02-28T22:28:50.318Z,10.17
2023-02-28T22:31:59.951Z,10.80
2023-02-28T22:35:09.575Z,10.70
2023-02-28T22:38:17.828Z,11.53
2023-02-28T22:41:26.636Z,10.70
2023-02-28T22:44:35.924Z,10.80
2023-02-28T22:47:45.677Z,9.93
2023-02-28T22:51:03.909Z,10.83
2023-02-28T22:54:12.244Z,9.80
2023-02-28T22:57:20.769Z,9.47
2023-02-28T23:00:29.021Z,10.20
2023-02-28T23:03:39.926Z,10.37
2023-02-28T23:06:48.056Z,10.77
2023-02-28T23:09:56.520Z,11.90
2023-02-28T23:13:04.663Z,9.47
2023-02-28T23:16:12.934Z,11.43
2023-02-28T23:19:26.418Z,10.30
2023-02-28T23:22:34.610Z,10.37
2023-02-28T23:25:43.707Z,10.10
2023-02-28T23:28:52.065Z,11.33
2023-02-28T23:32:00.746Z,10.87
2023-02-28T23:35:12.684Z,9.77
2023-02-28T23:38:20.957Z,11.37
2023-02-28T23:41:29.115Z,10.43
2023-02-28T23:44:37.252Z,10.87
2023-02-28T23:47:45.402Z,10.33
2023-02-28T23:50:58.202Z,10.93
2023-02-28T23:54:07.587Z,11.17
2023-02-28T23:57:15.798Z,10.13
